Time;durP1;ratioP1;P1;durP2;ratioP2;P2;SDS_P1;SDS_P2;PMS_P1;PMS_P2;Temp;Humidity;BMP_temperature;BMP_pressure;BME280_temperature;BME280_humidity;BME280_pressure;Samples;Min_cycle;Max_cycle;Signal;HPM_P1;HPM_P2
2022/12/07 00:01:25;;;;;;;10.25;7.53;;;11.50;93.70;;;;;;4992992;28;20084;-75
2022/12/07 00:03:53;;;;;;;11.23;8.15;;;11.50;93.60;;;;;;4976250;28;20113;-74
2022/12/07 00:06:19;;;;;;;14.15;7.18;;;11.50;93.80;;;;;;4993894;28;20502;-76
2022/12/07 00:08:46;;;;;;;11.68;7.50;;;11.40;93.70;;;;;;4993796;28;20088;-77
2022/12/07 00:11:14;;;;;;;10.20;7.18;;;11.40;93.60;;;;;;4993430;28;20027;-76
2022/12/07 00:13:40;;;;;;;9.77;6.63;;;11.40;93.60;;;;;;4993490;28;20042;-76
2022/12/07 00:16:15;;;;;;;11.40;7.13;;;11.40;93.60;;;;;;4993580;28;20536;-75
2022/12/07 00:18:42;;;;;;;11.50;7.28;;;11.40;93.60;;;;;;4976211;28;20434;-75
2022/12/07 00:21:12;;;;;;;9.43;6.85;;;11.40;93.60;;;;;;4993619;28;20037;-76
2022/12/07 00:23:37;;;;;;;11.23;7.55;;;11.30;93.70;;;;;;4993123;28;20092;-74
2022/12/07 00:26:08;;;;;;;10.02;7.32;;;11.20;93.80;;;;;;4976110;28;20449;-73
2022/12/07 00:28:34;;;;;;;7.25;6.50;;;11.20;93.80;;;;;;4993351;28;20622;-74
2022/12/07 00:31:05;;;;;;;10.10;8.02;;;11.20;93.80;;;;;;4993482;28;20134;-75
2022/12/07 00:33:31;;;;;;;8.98;6.82;;;11.20;93.80;;;;;;4993264;28;20030;-74
2022/12/07 00:35:58;;;;;;;9.18;6.03;;;11.20;93.70;;;;;;4993631;28;20105;-76
2022/12/07 00:38:24;;;;;;;10.85;7.13;;;11.20;93.70;;;;;;5006304;28;20018;-73
2022/12/07 00:41:01;;;;;;;9.13;6.95;;;11.10;93.80;;;;;;4992484;28;20022;-74
2022/12/07 00:43:27;;;;;;;8.18;7.00;;;11.10;94.00;;;;;;4975788;28;20057;-76
2022/12/07 00:45:53;;;;;;;9.70;6.68;;;11.10;94.00;;;;;;4993276;28;20019;-75
2022/12/07 00:48:20;;;;;;;8.95;6.95;;;11.10;94.10;;;;;;4993209;28;20030;-75
2022/12/07 00:50:46;;;;;;;8.90;6.78;;;11.20;94.10;;;;;;4993567;28;20061;-74
2022/12/07 00:53:11;;;;;;;10.10;7.00;;;11.10;94.20;;;;;;4992533;28;20077;-77
2022/12/07 00:55:38;;;;;;;10.68;6.25;;;11.20;94.30;;;;;;4993272;28;20049;-73
2022/12/07 00:58:03;;;;;;;10.15;6.53;;;11.20;94.50;;;;;;4993174;28;20026;-76
2022/12/07 01:00:29;;;;;;;10.43;6.60;;;11.20;94.60;;;;;;4992990;28;20085;-73
2022/12/07 01:02:55;;;;;;;10.68;6.00;;;11.20;94.60;;;;;;4993076;28;20101;-73
2022/12/07 01:05:21;;;;;;;8.55;6.32;;;11.30;94.60;;;;;;4993137;28;20045;-76
2022/12/07 01:07:46;;;;;;;10.82;6.82;;;11.20;94.60;;;;;;4992691;28;20038;-75
2022/12/07 01:10:12;;;;;;;9.45;5.90;;;11.20;94.60;;;;;;4991555;28;20458;-75
2022/12/07 01:12:38;;;;;;;8.48;5.68;;;11.20;94.70;;;;;;4983899;28;20026;-77
2022/12/07 01:15:05;;;;;;;8.27;5.60;;;11.30;94.60;;;;;;4973404;28;20476;-75
2022/12/07 01:17:30;;;;;;;8.82;5.57;;;11.20;94.60;;;;;;4972436;28;20424;-76
2022/12/07 01:19:56;;;;;;;7.28;5.63;;;11.30;94.70;;;;;;4972956;28;20526;-76
2022/12/07 01:22:21;;;;;;;8.80;6.15;;;11.20;94.50;;;;;;4989523;28;20027;-77
2022/12/07 01:24:47;;;;;;;8.73;6.35;;;11.30;94.60;;;;;;4992685;28;20035;-73
2022/12/07 01:27:13;;;;;;;11.75;7.03;;;11.30;94.60;;;;;;4975582;28;20015;-75
2022/12/07 01:29:39;;;;;;;12.07;7.10;;;11.30;94.70;;;;;;4993001;28;20022;-75
2022/12/07 01:32:04;;;;;;;10.52;6.70;;;11.20;94.70;;;;;;4992910;28;20487;-76
2022/12/07 01:34:30;;;;;;;9.48;6.75;;;11.20;95.00;;;;;;4992477;28;20038;-74
2022/12/07 01:36:56;;;;;;;10.50;7.13;;;11.30;94.80;;;;;;4973303;28;20025;-74
2022/12/07 01:39:24;;;;;;;9.05;5.50;;;11.30;94.90;;;;;;4973230;28;20027;-73
2022/12/07 01:41:50;;;;;;;11.45;6.82;;;11.30;95.10;;;;;;4973592;28;20468;-74
2022/12/07 01:44:19;;;;;;;10.43;6.28;;;11.20;95.20;;;;;;4973189;28;20231;-73
2022/12/07 01:46:55;;;;;;;9.98;6.32;;;11.20;95.00;;;;;;4991282;28;20033;-73
2022/12/07 01:49:27;;;;;;;11.20;6.15;;;11.20;95.00;;;;;;4992591;28;20030;-73
2022/12/07 01:52:03;;;;;;;9.38;6.25;;;11.20;94.80;;;;;;4994532;28;20097;-73
2022/12/07 01:54:29;;;;;;;7.72;6.10;;;11.20;94.70;;;;;;4996349;28;20034;-73
2022/12/07 01:56:57;;;;;;;9.93;6.60;;;11.10;94.80;;;;;;4996165;28;20109;-73
2022/12/07 01:59:25;;;;;;;11.55;7.07;;;11.10;94.50;;;;;;4996267;28;20084;-74
2022/12/07 02:01:53;;;;;;;9.73;6.47;;;11.10;94.50;;;;;;4996130;28;20041;-73
2022/12/07 02:04:19;;;;;;;11.00;6.30;;;11.10;94.70;;;;;;4996158;28;20101;-73
2022/12/07 02:06:46;;;;;;;9.82;6.13;;;11.00;94.70;;;;;;4976749;28;20019;-73
2022/12/07 02:09:12;;;;;;;9.70;5.80;;;11.00;94.80;;;;;;4976706;28;20031;-73
2022/12/07 02:11:38;;;;;;;8.43;6.55;;;11.10;94.80;;;;;;4976540;28;20490;-73
2022/12/07 02:14:04;;;;;;;9.93;6.03;;;11.10;94.80;;;;;;4976602;28;20361;-73
2022/12/07 02:17:04;;;;;;;8.30;6.03;;;11.10;94.80;;;;;;4991387;28;20026;-73
2022/12/07 02:19:48;;;;;;;9.93;5.85;;;11.00;94.70;;;;;;4995594;28;20031;-73
2022/12/07 02:22:35;;;;;;;10.40;5.95;;;11.10;94.70;;;;;;4995860;28;20084;-74
2022/12/07 02:25:26;;;;;;;10.13;6.65;;;11.00;94.80;;;;;;4995373;28;20027;-72
2022/12/07 02:28:18;;;;;;;8.57;6.13;;;11.00;94.80;;;;;;4995701;28;20069;-73
2022/12/07 02:30:48;;;;;;;8.52;6.63;;;11.00;95.00;;;;;;4995635;28;20034;-74
2022/12/07 02:33:28;;;;;;;10.55;6.30;;;11.00;94.90;;;;;;4995414;28;20026;-73
2022/12/07 02:36:01;;;;;;;10.32;5.88;;;11.00;95.20;;;;;;4994741;28;20084;-73
2022/12/07 02:38:49;;;;;;;8.48;6.63;;;11.00;95.00;;;;;;4995073;28;20033;-73
2022/12/07 02:41:49;;;;;;;10.80;5.95;;;11.00;94.80;;;;;;4995487;28;20100;-73
2022/12/07 02:44:20;;;;;;;9.88;6.03;;;11.00;94.80;;;;;;4990708;28;20044;-73
2022/12/07 02:47:08;;;;;;;9.27;5.95;;;11.00;94.90;;;;;;4995245;28;20030;-73
2022/12/07 02:49:35;;;;;;;12.70;5.93;;;11.00;95.00;;;;;;4995041;28;20069;-73
2022/12/07 02:52:00;;;;;;;10.75;5.90;;;10.90;95.00;;;;;;4995217;28;20475;-74
2022/12/07 02:54:26;;;;;;;9.25;6.25;;;11.00;95.10;;;;;;4995248;28;20045;-74
2022/12/07 02:57:35;;;;;;;12.23;6.50;;;11.00;95.10;;;;;;4995050;28;20022;-73
2022/12/07 03:00:15;;;;;;;8.05;5.65;;;10.90;95.20;;;;;;4994624;28;20041;-73
2022/12/07 03:03:03;;;;;;;9.95;5.47;;;10.90;95.20;;;;;;4976619;28;20436;-73
2022/12/07 03:05:42;;;;;;;9.27;5.68;;;11.00;95.10;;;;;;4994903;28;20371;-73
2022/12/07 03:08:40;;;;;;;7.05;5.10;;;11.00;95.10;;;;;;4994863;28;20058;-73
2022/12/07 03:11:14;;;;;;;8.68;5.20;;;11.00;95.10;;;;;;4979124;28;20113;-74
2022/12/07 03:13:48;;;;;;;9.20;5.88;;;10.90;95.10;;;;;;4995031;28;20109;-73
2022/12/07 03:16:17;;;;;;;9.48;5.80;;;10.90;95.10;;;;;;4994353;28;20089;-73
2022/12/07 03:18:55;;;;;;;8.43;5.60;;;11.00;95.00;;;;;;4994624;28;20022;-73
2022/12/07 03:21:29;;;;;;;9.95;6.00;;;10.90;95.00;;;;;;4994818;28;20049;-74
2022/12/07 03:23:58;;;;;;;8.80;5.22;;;10.90;95.00;;;;;;4994923;28;20042;-74
2022/12/07 03:26:48;;;;;;;8.70;5.47;;;10.90;95.00;;;;;;4994454;28;20037;-73
2022/12/07 03:29:23;;;;;;;11.40;4.85;;;10.90;95.00;;;;;;4976781;28;20037;-74
2022/12/07 03:31:58;;;;;;;8.45;5.00;;;10.90;95.00;;;;;;4994678;28;20042;-76
2022/12/07 03:34:32;;;;;;;9.65;5.47;;;10.90;95.00;;;;;;4994571;28;20096;-77
2022/12/07 03:37:08;;;;;;;8.07;4.90;;;10.80;94.90;;;;;;4994112;28;20022;-77
2022/12/07 03:39:39;;;;;;;7.80;5.03;;;10.80;95.00;;;;;;4994442;28;20022;-76
2022/12/07 03:42:07;;;;;;;9.35;5.18;;;10.80;95.20;;;;;;4994110;28;20138;-77
2022/12/07 03:44:35;;;;;;;10.70;4.82;;;10.80;95.20;;;;;;4994937;28;20048;-77
2022/12/07 03:47:12;;;;;;;8.40;5.18;;;10.80;95.20;;;;;;4993943;28;20026;-77
2022/12/07 03:49:47;;;;;;;8.70;4.90;;;10.80;95.30;;;;;;5009265;28;20026;-77
2022/12/07 03:52:34;;;;;;;7.75;4.35;;;10.80;95.30;;;;;;4993737;28;20546;-77
2022/12/07 03:55:17;;;;;;;6.53;4.60;;;10.90;95.20;;;;;;4993841;28;20042;-76
2022/12/07 03:57:44;;;;;;;9.68;4.32;;;10.90;95.30;;;;;;4994089;28;20037;-75
2022/12/07 04:00:11;;;;;;;12.02;5.43;;;10.80;95.40;;;;;;4994023;28;20034;-74
2022/12/07 04:02:37;;;;;;;8.43;5.57;;;10.80;95.20;;;;;;4993350;28;20097;-77
2022/12/07 04:05:03;;;;;;;6.97;4.47;;;10.90;95.10;;;;;;4994001;28;20113;-74
2022/12/07 04:07:28;;;;;;;8.90;5.00;;;10.80;95.00;;;;;;4993705;28;20105;-74
2022/12/07 04:09:54;;;;;;;7.78;4.85;;;10.80;95.10;;;;;;4993862;28;20030;-73
2022/12/07 04:12:21;;;;;;;8.30;5.38;;;10.80;95.00;;;;;;4993609;28;20110;-73
2022/12/07 04:14:47;;;;;;;9.38;5.88;;;10.70;95.00;;;;;;4993634;28;20038;-75
2022/12/07 04:17:12;;;;;;;8.25;5.50;;;10.80;95.00;;;;;;4993402;28;20381;-74
2022/12/07 04:19:38;;;;;;;7.70;5.53;;;10.70;94.90;;;;;;4993621;28;20030;-75
2022/12/07 04:22:04;;;;;;;9.63;5.70;;;10.70;94.80;;;;;;4993140;28;20027;-75
2022/12/07 04:24:30;;;;;;;8.60;5.72;;;10.70;94.80;;;;;;4993520;28;20101;-77
2022/12/07 04:26:56;;;;;;;12.85;5.47;;;10.60;94.80;;;;;;5008729;28;20502;-73
2022/12/07 04:29:22;;;;;;;5.85;5.00;;;10.60;94.80;;;;;;4993565;28;20438;-73
2022/12/07 04:31:48;;;;;;;6.30;4.78;;;10.60;94.90;;;;;;4992965;28;20045;-74
2022/12/07 04:34:14;;;;;;;7.47;5.47;;;10.60;94.80;;;;;;4992881;28;20507;-73
2022/12/07 04:36:41;;;;;;;7.65;5.03;;;10.60;94.70;;;;;;4993286;28;20026;-76
2022/12/07 04:39:19;;;;;;;9.43;5.18;;;10.50;94.60;;;;;;4993478;28;20092;-76
2022/12/07 04:41:45;;;;;;;10.27;5.75;;;10.50;94.70;;;;;;4993273;28;20467;-73
2022/12/07 04:44:14;;;;;;;6.13;4.82;;;10.50;94.70;;;;;;4993343;28;20037;-75
2022/12/07 04:46:40;;;;;;;7.60;5.88;;;10.50;94.90;;;;;;4993128;28;20113;-75
2022/12/07 04:49:05;;;;;;;7.95;4.65;;;10.50;94.90;;;;;;4993178;28;20105;-74
2022/12/07 04:51:31;;;;;;;7.07;5.43;;;10.40;95.00;;;;;;4992988;28;20498;-74
2022/12/07 04:53:56;;;;;;;9.88;4.93;;;10.40;95.10;;;;;;4993263;28;20062;-74
2022/12/07 04:56:23;;;;;;;12.35;5.38;;;10.50;95.00;;;;;;4993189;28;20046;-73
2022/12/07 04:58:50;;;;;;;7.70;4.70;;;10.40;95.00;;;;;;4992410;28;20109;-75
2022/12/07 05:01:17;;;;;;;7.85;5.28;;;10.50;95.10;;;;;;4993244;28;20022;-76
2022/12/07 05:03:42;;;;;;;6.68;5.05;;;10.50;95.10;;;;;;4992996;28;20030;-74
2022/12/07 05:06:09;;;;;;;10.60;5.05;;;10.40;95.20;;;;;;4993243;28;20105;-73
2022/12/07 05:08:35;;;;;;;7.72;4.10;;;10.50;95.10;;;;;;4992636;28;20034;-73
2022/12/07 05:11:00;;;;;;;7.72;4.00;;;10.70;93.90;;;;;;4992776;28;20398;-72
2022/12/07 05:13:26;;;;;;;8.05;4.07;;;10.90;93.30;;;;;;4992499;28;20049;-73
2022/12/07 05:15:52;;;;;;;8.20;4.65;;;11.00;93.10;;;;;;5008362;28;20023;-72
2022/12/07 05:18:17;;;;;;;7.43;4.30;;;11.00;93.10;;;;;;4992411;28;20022;-72
2022/12/07 05:20:44;;;;;;;8.52;4.47;;;11.00;93.20;;;;;;4993066;28;20030;-73
2022/12/07 05:23:10;;;;;;;9.25;4.25;;;10.90;93.30;;;;;;4992293;28;20560;-73
2022/12/07 05:25:36;;;;;;;6.70;4.35;;;11.00;93.40;;;;;;4992505;28;20066;-74
2022/12/07 05:28:02;;;;;;;8.32;4.63;;;11.00;93.50;;;;;;4996196;28;20033;-73
2022/12/07 05:30:28;;;;;;;9.43;4.25;;;10.90;93.60;;;;;;4996250;28;20030;-73
2022/12/07 05:32:53;;;;;;;9.13;4.35;;;10.80;93.70;;;;;;4996760;28;20493;-72
2022/12/07 05:35:19;;;;;;;7.00;4.15;;;10.80;93.80;;;;;;4979330;28;20043;-73
2022/12/07 05:37:46;;;;;;;5.43;3.60;;;10.80;93.80;;;;;;4996270;28;20022;-74
2022/12/07 05:40:12;;;;;;;10.32;4.28;;;10.90;93.90;;;;;;4992207;28;20066;-73
2022/12/07 05:42:38;;;;;;;6.85;3.65;;;10.90;93.90;;;;;;4976952;28;20023;-72
2022/12/07 05:45:05;;;;;;;8.18;4.30;;;10.90;93.90;;;;;;4976943;28;20101;-73
2022/12/07 05:47:31;;;;;;;5.63;3.42;;;11.00;93.80;;;;;;4977607;28;20063;-77
2022/12/07 05:49:56;;;;;;;7.85;3.50;;;10.90;93.90;;;;;;4994404;28;20027;-75
2022/12/07 05:52:22;;;;;;;9.43;4.18;;;10.90;93.80;;;;;;4995481;28;20080;-77
2022/12/07 05:54:48;;;;;;;6.28;3.70;;;10.80;94.10;;;;;;4995967;28;20046;-77
2022/12/07 05:57:13;;;;;;;9.35;3.75;;;10.90;94.00;;;;;;4996003;28;20483;-77
2022/12/07 05:59:39;;;;;;;7.65;4.13;;;10.80;94.20;;;;;;4990425;28;20038;-77
2022/12/07 06:02:07;;;;;;;10.70;4.22;;;10.90;94.20;;;;;;4992046;28;20475;-79
2022/12/07 06:04:36;;;;;;;10.52;3.78;;;10.80;94.10;;;;;;4991223;28;20037;-77
2022/12/07 06:07:01;;;;;;;15.25;4.10;;;11.00;94.00;;;;;;4994893;28;20034;-77
2022/12/07 06:09:28;;;;;;;7.55;3.65;;;11.00;94.00;;;;;;4977160;28;20080;-77
2022/12/07 06:14:39;;;;;;;9.73;4.40;;;10.80;94.30;;;;;;4975746;28;20045;-77
2022/12/07 06:17:05;;;;;;;9.35;3.90;;;10.70;94.60;;;;;;4975438;28;20018;-77
2022/12/07 06:19:31;;;;;;;6.97;3.47;;;10.70;94.60;;;;;;4975522;28;20520;-76
2022/12/07 06:21:56;;;;;;;7.20;3.90;;;11.00;94.20;;;;;;4984343;28;20030;-76
2022/12/07 06:24:22;;;;;;;10.30;4.32;;;10.90;94.10;;;;;;4977964;28;20045;-78
2022/12/07 06:26:48;;;;;;;9.35;4.05;;;10.90;94.30;;;;;;4995591;28;20080;-77
2022/12/07 06:29:14;;;;;;;6.22;3.33;;;10.80;94.20;;;;;;4994889;28;20101;-76
2022/12/07 06:31:40;;;;;;;5.05;3.13;;;10.80;94.20;;;;;;4992084;28;20494;-76
2022/12/07 06:34:18;;;;;;;7.38;3.42;;;10.80;94.20;;;;;;4990226;28;20483;-76
2022/12/07 06:36:43;;;;;;;6.30;3.97;;;10.90;94.30;;;;;;4992150;28;20022;-75
2022/12/07 06:39:10;;;;;;;8.93;3.83;;;10.90;94.10;;;;;;4988135;28;20214;-76
2022/12/07 06:41:37;;;;;;;7.82;4.03;;;10.80;94.40;;;;;;4986342;28;20506;-76
2022/12/07 06:44:07;;;;;;;11.02;4.45;;;10.70;94.50;;;;;;4977859;28;20041;-73
2022/12/07 06:46:32;;;;;;;6.75;4.20;;;10.60;94.60;;;;;;4986777;28;20030;-76
2022/12/07 06:48:58;;;;;;;5.80;3.63;;;10.70;94.50;;;;;;4987889;28;20026;-78
2022/12/07 06:51:24;;;;;;;8.00;3.78;;;10.60;94.50;;;;;;4979593;28;20034;-77
2022/12/07 06:53:49;;;;;;;5.65;3.47;;;10.60;94.60;;;;;;4988581;28;20514;-77
2022/12/07 06:56:15;;;;;;;8.18;3.70;;;10.50;94.50;;;;;;4994864;28;20084;-73
2022/12/07 06:58:41;;;;;;;7.78;3.25;;;10.60;94.60;;;;;;4987430;28;20057;-75
2022/12/07 07:01:11;;;;;;;8.52;3.30;;;10.60;94.50;;;;;;4991316;28;20549;-74
2022/12/07 07:03:37;;;;;;;6.60;3.55;;;10.60;94.50;;;;;;5003143;28;20166;-73
2022/12/07 07:06:03;;;;;;;7.47;4.05;;;10.60;94.50;;;;;;4976548;28;20030;-76
2022/12/07 07:08:29;;;;;;;9.13;4.43;;;10.60;94.40;;;;;;4995749;28;20037;-78
2022/12/07 07:10:54;;;;;;;10.10;4.20;;;10.60;94.30;;;;;;4991053;28;20034;-78
2022/12/07 07:13:20;;;;;;;13.43;5.05;;;10.50;94.40;;;;;;4987872;28;20061;-76
2022/12/07 07:15:45;;;;;;;10.10;4.35;;;10.70;94.40;;;;;;4986944;28;20030;-75
2022/12/07 07:18:11;;;;;;;8.55;4.30;;;10.90;93.80;;;;;;4994376;28;20022;-73
2022/12/07 07:20:38;;;;;;;9.48;4.30;;;10.80;93.80;;;;;;4993491;28;20494;-76
2022/12/07 07:23:04;;;;;;;11.25;4.03;;;11.10;93.70;;;;;;4994081;28;20424;-77
2022/12/07 07:25:29;;;;;;;13.40;4.68;;;11.30;93.10;;;;;;4994298;28;20076;-77
2022/12/07 07:27:55;;;;;;;13.73;4.60;;;11.40;93.10;;;;;;4991528;28;20563;-76
2022/12/07 07:30:21;;;;;;;9.30;4.32;;;11.20;92.70;;;;;;4991757;28;20037;-74
2022/12/07 07:32:46;;;;;;;15.27;4.00;;;11.20;92.90;;;;;;4990562;28;20069;-72
2022/12/07 07:35:13;;;;;;;12.07;3.65;;;10.90;93.00;;;;;;4991872;28;20042;-73
2022/12/07 07:37:39;;;;;;;9.85;3.90;;;11.20;93.20;;;;;;4986451;28;20022;-72
2022/12/07 07:40:06;;;;;;;7.28;3.42;;;11.30;93.10;;;;;;4992637;28;20037;-73
2022/12/07 07:42:31;;;;;;;14.45;3.72;;;11.40;93.00;;;;;;4992012;28;20022;-68
2022/12/07 07:44:57;;;;;;;232.20;34.55;;;11.40;93.10;;;;;;4975636;28;20038;-72
2022/12/07 07:47:22;;;;;;;118.93;17.08;;;11.40;93.30;;;;;;4974117;28;20035;-68
2022/12/07 07:49:48;;;;;;;27.38;4.72;;;11.40;93.40;;;;;;4956780;28;20026;-70
2022/12/07 07:52:13;;;;;;;44.22;8.02;;;11.40;93.50;;;;;;4984246;28;20558;-69
2022/12/07 07:54:39;;;;;;;34.38;6.72;;;11.10;93.40;;;;;;4989714;28;20026;-74
2022/12/07 07:57:04;;;;;;;10.63;3.92;;;11.00;93.80;;;;;;4994028;28;20384;-73
2022/12/07 07:59:30;;;;;;;17.85;4.18;;;10.90;94.00;;;;;;4992900;28;20487;-71
2022/12/07 08:01:55;;;;;;;11.75;4.07;;;10.90;93.90;;;;;;4993956;28;20502;-72
2022/12/07 08:04:21;;;;;;;14.85;3.95;;;10.90;93.90;;;;;;4991491;28;20034;-75
2022/12/07 08:06:46;;;;;;;9.57;3.38;;;10.90;93.90;;;;;;4988346;28;20033;-70
2022/12/07 08:09:12;;;;;;;8.20;3.78;;;11.20;93.70;;;;;;5005510;28;20129;-75
2022/12/07 08:11:37;;;;;;;11.20;2.97;;;11.10;93.80;;;;;;4974386;28;20023;-71
2022/12/07 08:14:03;;;;;;;11.80;3.70;;;11.10;93.90;;;;;;4993467;28;20483;-72
2022/12/07 08:16:29;;;;;;;9.90;3.35;;;11.10;94.00;;;;;;4993781;28;20022;-74
2022/12/07 08:18:57;;;;;;;10.02;3.97;;;11.10;94.10;;;;;;4993499;28;20541;-72
2022/12/07 08:21:22;;;;;;;10.50;3.47;;;11.10;94.20;;;;;;4993913;28;20045;-73
2022/12/07 08:23:48;;;;;;;13.30;3.47;;;11.00;94.30;;;;;;4993336;28;20367;-71
2022/12/07 08:26:15;;;;;;;11.75;4.00;;;11.20;94.30;;;;;;4990976;28;21803;-70
2022/12/07 08:28:42;;;;;;;11.73;4.03;;;11.10;94.40;;;;;;4993703;28;20380;-70
2022/12/07 08:31:12;;;;;;;16.25;5.20;;;11.30;94.20;;;;;;4991285;28;20494;-72
2022/12/07 08:33:38;;;;;;;23.77;5.65;;;11.60;93.80;;;;;;4993422;28;20034;-71
2022/12/07 08:36:06;;;;;;;23.45;4.90;;;11.80;93.70;;;;;;4992793;28;20357;-72
2022/12/07 08:38:33;;;;;;;26.10;5.70;;;11.80;93.80;;;;;;4991004;28;20447;-70
2022/12/07 08:40:59;;;;;;;19.35;5.00;;;11.70;94.00;;;;;;4990544;28;20023;-70
2022/12/07 08:43:25;;;;;;;38.28;6.20;;;11.50;94.20;;;;;;4993458;28;20027;-71
2022/12/07 08:46:08;;;;;;;30.17;6.60;;;11.80;94.20;;;;;;4993407;28;20505;-71
2022/12/07 08:48:35;;;;;;;21.45;6.03;;;11.80;94.20;;;;;;4993225;28;20085;-71
2022/12/07 08:51:02;;;;;;;19.85;5.95;;;11.80;94.10;;;;;;4991222;28;20037;-69
2022/12/07 08:53:28;;;;;;;25.50;6.93;;;11.70;94.10;;;;;;4991208;28;20034;-71
2022/12/07 08:55:56;;;;;;;30.05;5.60;;;11.80;93.90;;;;;;4993258;28;20073;-71
2022/12/07 08:58:22;;;;;;;27.52;5.18;;;11.80;93.80;;;;;;4992297;28;20479;-70
2022/12/07 09:00:47;;;;;;;25.70;5.00;;;11.80;93.90;;;;;;4992510;28;20113;-71
2022/12/07 09:03:13;;;;;;;28.73;5.78;;;11.40;94.40;;;;;;4993167;28;20049;-72
2022/12/07 09:05:38;;;;;;;17.33;4.38;;;11.40;94.90;;;;;;4992018;28;20117;-72
2022/12/07 09:08:04;;;;;;;18.70;4.63;;;11.30;94.90;;;;;;4993397;28;20019;-71
2022/12/07 09:10:30;;;;;;;18.17;4.65;;;11.30;94.90;;;;;;4992313;28;20030;-70
2022/12/07 09:13:00;;;;;;;22.95;5.70;;;11.40;94.80;;;;;;4992078;28;20380;-71
2022/12/07 09:15:27;;;;;;;14.48;4.15;;;11.40;94.70;;;;;;4993436;28;20116;-72
2022/12/07 09:17:52;;;;;;;15.40;4.55;;;11.40;94.70;;;;;;4974162;28;20158;-71
2022/12/07 09:20:18;;;;;;;23.92;5.10;;;11.50;94.60;;;;;;4988001;28;20090;-71
2022/12/07 09:22:44;;;;;;;19.55;6.05;;;11.40;94.50;;;;;;4992861;28;20535;-68
2022/12/07 09:25:09;;;;;;;19.73;5.97;;;11.60;94.40;;;;;;4993007;28;20031;-69
2022/12/07 09:27:35;;;;;;;19.00;5.80;;;11.50;94.50;;;;;;4993384;28;20030;-68
2022/12/07 09:30:01;;;;;;;14.35;4.38;;;11.60;94.70;;;;;;4991473;28;20027;-68
2022/12/07 09:32:26;;;;;;;19.55;8.00;;;11.60;94.80;;;;;;4993158;28;20121;-69
2022/12/07 09:34:52;;;;;;;17.20;5.07;;;11.40;94.90;;;;;;4993042;28;20089;-69
2022/12/07 09:37:18;;;;;;;10.02;5.18;;;11.50;94.90;;;;;;4993280;28;20145;-70
2022/12/07 09:39:43;;;;;;;14.68;4.97;;;11.60;94.60;;;;;;4991438;28;20022;-69
2022/12/07 09:42:18;;;;;;;15.57;4.90;;;11.70;94.60;;;;;;4988661;28;20061;-67
2022/12/07 09:44:44;;;;;;;9.77;4.05;;;12.20;94.30;;;;;;4992488;28;20037;-70
2022/12/07 09:47:10;;;;;;;10.05;3.78;;;12.40;94.00;;;;;;4993048;28;20446;-70
2022/12/07 09:49:35;;;;;;;16.15;4.32;;;12.40;94.00;;;;;;4996403;28;20092;-69
2022/12/07 09:52:07;;;;;;;12.93;3.90;;;12.40;93.90;;;;;;4994933;28;20031;-69
2022/12/07 09:54:36;;;;;;;10.57;4.03;;;12.30;94.10;;;;;;4986152;28;20038;-69
2022/12/07 09:57:02;;;;;;;13.48;3.80;;;12.30;94.20;;;;;;5000578;28;20034;-67
2022/12/07 09:59:28;;;;;;;16.05;3.58;;;12.30;94.10;;;;;;4994522;28;20550;-68
2022/12/07 10:01:53;;;;;;;14.57;3.67;;;12.40;94.40;;;;;;4998678;28;20487;-68
2022/12/07 10:04:25;;;;;;;17.27;3.90;;;12.30;94.60;;;;;;5010048;28;20486;-69
2022/12/07 10:06:51;;;;;;;9.80;4.15;;;12.10;94.20;;;;;;4991697;28;20023;-69
2022/12/07 10:09:19;;;;;;;893.50;104.93;;;11.90;94.20;;;;;;4974751;28;20026;-68
2022/12/07 10:12:02;;;;;;;227.40;29.00;;;11.90;94.20;;;;;;4992947;28;20050;-68
2022/12/07 10:14:31;;;;;;;60.00;9.40;;;11.90;94.40;;;;;;4995003;28;20038;-68
2022/12/07 10:16:57;;;;;;;15.10;5.30;;;12.20;94.40;;;;;;4986902;28;20305;-67
2022/12/07 10:19:24;;;;;;;26.65;4.47;;;12.00;94.50;;;;;;4992783;28;20032;-67
2022/12/07 10:22:01;;;;;;;10.52;4.00;;;12.00;94.60;;;;;;4989723;28;20030;-68
2022/12/07 10:24:26;;;;;;;9.23;3.83;;;11.90;94.70;;;;;;4985010;28;20552;-69
2022/12/07 10:26:53;;;;;;;12.45;4.70;;;12.20;94.70;;;;;;4987844;28;20059;-68
2022/12/07 10:29:31;;;;;;;11.80;4.03;;;12.10;94.70;;;;;;4990575;28;20038;-68
2022/12/07 10:32:02;;;;;;;9.93;3.65;;;12.10;94.70;;;;;;4989225;28;20034;-69
2022/12/07 10:34:34;;;;;;;10.82;3.92;;;12.10;94.60;;;;;;4994646;28;20053;-70
2022/12/07 10:37:09;;;;;;;7.47;4.07;;;12.10;94.80;;;;;;5003294;28;20026;-70
2022/12/07 10:39:49;;;;;;;14.10;4.00;;;12.20;94.60;;;;;;4994087;28;20062;-68
2022/12/07 10:42:20;;;;;;;14.85;3.65;;;12.20;94.90;;;;;;4998614;28;20463;-69
2022/12/07 10:44:47;;;;;;;15.52;4.63;;;12.20;95.00;;;;;;4999864;28;20089;-69
2022/12/07 10:47:31;;;;;;;15.07;4.50;;;12.30;95.00;;;;;;4989488;28;20030;-69
2022/12/07 10:50:29;;;;;;;14.65;5.03;;;12.40;94.80;;;;;;4986194;28;20125;-70
2022/12/07 10:53:25;;;;;;;13.50;4.50;;;12.50;94.90;;;;;;4995588;28;20065;-68
2022/12/07 10:56:03;;;;;;;12.80;4.13;;;12.60;94.70;;;;;;4990360;28;20429;-69
2022/12/07 10:58:28;;;;;;;9.88;3.28;;;12.80;94.60;;;;;;4991255;28;20049;-70
2022/12/07 11:01:18;;;;;;;9.88;4.00;;;12.60;94.60;;;;;;4990069;28;20387;-68
2022/12/07 11:04:10;;;;;;;14.10;4.15;;;12.70;94.80;;;;;;4993994;28;20031;-68
2022/12/07 11:06:51;;;;;;;9.95;4.00;;;12.80;94.90;;;;;;4990053;28;20026;-69
2022/12/07 11:09:47;;;;;;;10.60;4.13;;;12.50;94.90;;;;;;4985602;28;20037;-69
2022/12/07 11:12:34;;;;;;;759.83;112.20;;;12.30;95.40;;;;;;4990209;28;20030;-69
2022/12/07 11:15:05;;;;;;;250.07;34.63;;;12.20;95.40;;;;;;4982337;28;20039;-69
2022/12/07 11:17:48;;;;;;;85.90;17.10;;;12.60;95.50;;;;;;5006835;28;20030;-69
2022/12/07 11:20:55;;;;;;;30.08;6.32;;;12.90;96.00;;;;;;4987617;28;20030;-68
2022/12/07 11:23:39;;;;;;;18.60;5.25;;;13.10;96.40;;;;;;4970105;28;20039;-68
2022/12/07 11:26:31;;;;;;;18.33;5.97;;;13.10;96.90;;;;;;4987798;28;20038;-71
2022/12/07 11:29:52;;;;;;;22.40;5.55;;;13.20;96.90;;;;;;4989812;28;20026;-69
2022/12/07 11:32:38;;;;;;;23.95;6.93;;;13.20;97.60;;;;;;4951446;28;20045;-71
2022/12/07 11:35:15;;;;;;;24.80;6.50;;;13.10;98.40;;;;;;4995798;28;20177;-69
2022/12/07 11:37:42;;;;;;;25.80;6.45;;;13.30;98.20;;;;;;4988737;28;20057;-68
2022/12/07 11:40:21;;;;;;;19.25;5.30;;;13.30;98.40;;;;;;4998760;28;20030;-69
2022/12/07 11:43:17;;;;;;;14.23;5.15;;;13.40;98.10;;;;;;4986377;28;20030;-69
2022/12/07 11:45:47;;;;;;;16.55;5.22;;;13.50;97.50;;;;;;4985370;28;20084;-69
2022/12/07 11:48:33;;;;;;;16.15;4.97;;;13.50;97.80;;;;;;4990595;28;20018;-72
2022/12/07 11:51:01;;;;;;;11.65;3.78;;;13.40;98.00;;;;;;4993736;28;20045;-71
2022/12/07 11:53:50;;;;;;;13.95;5.20;;;13.50;96.90;;;;;;5003217;28;20026;-70
2022/12/07 11:56:19;;;;;;;13.40;4.07;;;13.50;95.90;;;;;;4999308;28;20046;-72
2022/12/07 11:58:51;;;;;;;25.02;4.82;;;13.60;96.60;;;;;;4998188;28;20048;-72
2022/12/07 12:01:35;;;;;;;15.25;4.88;;;13.60;96.70;;;;;;5000970;28;20368;-72
2022/12/07 12:04:09;;;;;;;19.52;4.03;;;13.60;96.60;;;;;;4996454;28;20026;-73
2022/12/07 12:06:35;;;;;;;12.10;3.85;;;13.60;96.50;;;;;;5000213;28;20026;-74
2022/12/07 12:09:06;;;;;;;13.57;3.28;;;13.60;96.20;;;;;;5001143;28;20437;-74
2022/12/07 12:12:09;;;;;;;16.83;4.03;;;13.60;96.10;;;;;;4997985;28;20037;-73
2022/12/07 12:14:49;;;;;;;12.82;3.80;;;13.70;95.90;;;;;;5007649;28;20554;-72
2022/12/07 12:17:43;;;;;;;29.35;4.68;;;13.60;95.20;;;;;;4993800;28;20077;-73
2022/12/07 12:20:19;;;;;;;20.45;4.13;;;13.60;95.80;;;;;;4976042;28;20033;-72
2022/12/07 12:22:50;;;;;;;16.92;4.03;;;13.70;95.80;;;;;;5003442;28;20022;-72
2022/12/07 12:25:29;;;;;;;19.33;3.88;;;13.70;95.80;;;;;;4986484;28;20026;-72
2022/12/07 12:27:58;;;;;;;19.27;3.70;;;13.60;95.70;;;;;;4990601;28;20077;-68
2022/12/07 12:30:31;;;;;;;14.10;2.95;;;13.70;95.60;;;;;;4990972;28;20063;-72
2022/12/07 12:33:15;;;;;;;17.15;3.33;;;13.70;95.50;;;;;;4996635;28;20537;-71
2022/12/07 12:35:41;;;;;;;16.13;3.10;;;13.70;95.70;;;;;;4989268;28;20509;-70
2022/12/07 12:38:27;;;;;;;19.15;3.72;;;13.80;95.40;;;;;;4988661;28;20106;-70
2022/12/07 12:40:55;;;;;;;22.35;3.55;;;13.80;95.60;;;;;;4991599;28;20034;-69
2022/12/07 12:43:40;;;;;;;20.75;2.90;;;14.00;95.10;;;;;;4987605;28;20027;-69
2022/12/07 12:46:33;;;;;;;7.78;2.60;;;13.80;95.40;;;;;;4989737;28;20468;-71
2022/12/07 12:49:35;;;;;;;12.57;2.95;;;13.90;95.00;;;;;;4983028;28;20391;-71
2022/12/07 12:52:30;;;;;;;13.93;3.25;;;14.00;94.30;;;;;;4936504;29;20028;-71
2022/12/07 12:54:59;;;;;;;6.88;2.80;;;14.00;94.50;;;;;;4985130;28;20049;-72
2022/12/07 12:57:31;;;;;;;10.18;2.05;;;14.10;94.10;;;;;;4981247;28;20041;-72
2022/12/07 13:00:03;;;;;;;8.85;2.63;;;14.10;94.40;;;;;;4988832;28;20058;-72
2022/12/07 13:02:33;;;;;;;16.67;2.80;;;14.10;94.40;;;;;;4981415;28;20598;-71